Carrboro, North Carolina
Current Conditions -  °F | °C
As of 5:13 AM on Wednesday 26 Nov 2014 (Local Time) from KIGX Reporting Station
Moderate Rain Moderate Rain  
Wind Chill: 44°   Ceiling: 700
Heat Index: 48°   Visibility: 3mi
Dew Point: 46°   Wind: 9mph
Humidity: 93%   Direction: 360°N
Pressure: 29.92"   Gusts: NA
Location:  35.91°N, 79.08°W
Report Text: KIGX 261013Z AUTO 36008KT 310V030 3SM RA BR BKN007 BKN013 OVC034 09/08 A2992 RMK AO2 P0009 T00890078
Loading
Personal Weather Stations






























Interactive Weather Map New forecast layout! Learn more

10-Day Weather Forecast

Advertisements
Track Severe Weather on mobile